createdAt,value
2022-12-13T00:00:34.467Z,99171.78
2022-12-13T00:03:17.155Z,99190.75
2022-12-13T00:05:59.374Z,99187.72
2022-12-13T00:08:49.165Z,99191.41
2022-12-13T00:11:38.206Z,99195.38
2022-12-13T00:14:23.486Z,99183.59
2022-12-13T00:17:12.112Z,99190.44
2022-12-13T00:19:57.798Z,99190.28
2022-12-13T00:22:47.118Z,99197.34
2022-12-13T00:25:29.498Z,99197.59
2022-12-13T00:28:18.217Z,99199.28
2022-12-13T00:31:35.244Z,99190.28
2022-12-13T00:34:14.199Z,99207.91
2022-12-13T00:37:00.059Z,99217.09
2022-12-13T00:39:49.209Z,99201.59
2022-12-13T00:42:31.481Z,99205.88
2022-12-13T00:45:21.076Z,99206.38
2022-12-13T00:48:10.064Z,99213.03
2022-12-13T00:50:58.443Z,99214.22
2022-12-13T00:53:41.202Z,99217.09
2022-12-13T00:56:26.652Z,99225.97
2022-12-13T00:59:15.207Z,99228.09
2022-12-13T01:01:57.591Z,99229.25
2022-12-13T01:04:46.208Z,99231.44
2022-12-13T01:07:28.447Z,99239.25
2022-12-13T01:10:18.269Z,99236.84
2022-12-13T01:13:06.451Z,99236.81
2022-12-13T01:15:53.217Z,99239.34
2022-12-13T01:18:42.206Z,99243.78
2022-12-13T01:21:27.486Z,99239.44
2022-12-13T01:24:19.152Z,99245.56
2022-12-13T01:27:02.470Z,99247.28
2022-12-13T01:29:51.161Z,99244.47
2022-12-13T01:32:33.497Z,99247.66
2022-12-13T01:35:25.113Z,99257.78
2022-12-13T01:38:15.857Z,99265.47
2022-12-13T01:41:17.375Z,99273.66
2022-12-13T01:44:09.465Z,99287.50
2022-12-13T01:46:52.502Z,99287.34
2022-12-13T01:49:34.359Z,99291.94
2022-12-13T01:52:28.258Z,99297.41
2022-12-13T01:55:10.794Z,99294.69
2022-12-13T01:58:03.223Z,99307.03
2022-12-13T02:00:47.052Z,99306.41
2022-12-13T02:03:37.055Z,99307.94
2022-12-13T02:06:33.458Z,99309.84
2022-12-13T02:09:17.061Z,99312.06
2022-12-13T02:12:05.479Z,99312.47
2022-12-13T02:14:49.190Z,99321.25
2022-12-13T02:18:06.537Z,99324.66
2022-12-13T02:20:54.061Z,99335.16
2022-12-13T02:23:57.439Z,99338.75
2022-12-13T02:27:03.164Z,99343.25
2022-12-13T02:29:51.481Z,99342.38
2022-12-13T02:32:34.133Z,99352.34
2022-12-13T02:35:30.618Z,99357.38
2022-12-13T02:38:26.267Z,99369.22
2022-12-13T02:41:48.013Z,99374.97
2022-12-13T02:44:45.173Z,99380.47
2022-12-13T02:47:38.214Z,99384.50
2022-12-13T02:50:28.455Z,99379.06
2022-12-13T02:53:13.055Z,99385.59
2022-12-13T02:55:55.414Z,99388.31
2022-12-13T02:58:50.210Z,99389.13
2022-12-13T03:01:52.440Z,99390.25
2022-12-13T03:05:30.173Z,99404.97
2022-12-13T03:08:40.177Z,99399.63
2022-12-13T03:11:52.015Z,99392.41
2022-12-13T03:14:35.147Z,99412.16
2022-12-13T03:17:27.169Z,99407.19
2022-12-13T03:20:22.450Z,99416.38
2022-12-13T03:23:12.133Z,99421.19
2022-12-13T03:25:57.443Z,99420.41
2022-12-13T03:28:47.055Z,99421.94
2022-12-13T03:31:36.213Z,99424.31
2022-12-13T03:34:26.051Z,99432.47
2022-12-13T03:37:34.122Z,99429.66
2022-12-13T03:40:16.547Z,99428.50
2022-12-13T03:43:07.176Z,99436.78
2022-12-13T03:45:55.484Z,99437.78
2022-12-13T03:48:38.228Z,99432.06
2022-12-13T03:51:20.385Z,99450.66
2022-12-13T03:54:09.148Z,99460.94
2022-12-13T03:56:58.037Z,99460.69
2022-12-13T03:59:47.201Z,99465.56
2022-12-13T04:02:36.221Z,99463.53
2022-12-13T04:05:18.645Z,99469.22
2022-12-13T04:08:08.168Z,99474.16
2022-12-13T04:11:23.113Z,99478.44
2022-12-13T04:14:12.281Z,99478.81
2022-12-13T04:17:04.491Z,99478.06
2022-12-13T04:19:53.183Z,99483.78
2022-12-13T04:22:35.444Z,99490.88
2022-12-13T04:25:24.047Z,99491.56
2022-12-13T04:28:06.472Z,99493.94
2022-12-13T04:30:55.046Z,99499.00
2022-12-13T04:33:37.527Z,99502.91
2022-12-13T04:36:32.139Z,99506.06
2022-12-13T04:39:22.812Z,99514.09
2022-12-13T04:42:12.234Z,99510.47
2022-12-13T04:44:55.499Z,99515.75
2022-12-13T04:47:44.187Z,99519.25
2022-12-13T04:50:27.466Z,99517.41
2022-12-13T04:53:16.144Z,99520.97
2022-12-13T04:55:58.437Z,99519.25
2022-12-13T04:58:47.091Z,99515.22
2022-12-13T05:01:29.428Z,99517.94
2022-12-13T05:04:18.066Z,99507.56
2022-12-13T05:07:00.477Z,99520.69
2022-12-13T05:09:49.254Z,99520.97
2022-12-13T05:12:31.596Z,99514.94
2022-12-13T05:15:20.135Z,99509.94
2022-12-13T05:18:11.032Z,99509.66
2022-12-13T05:20:54.139Z,99520.13
2022-12-13T05:23:43.125Z,99519.00
2022-12-13T05:26:31.461Z,99509.47
2022-12-13T05:29:14.175Z,99508.13
2022-12-13T05:31:56.446Z,99513.06
2022-12-13T05:34:45.161Z,99507.84
2022-12-13T05:37:35.161Z,99504.84
2022-12-13T05:40:17.453Z,99520.41
2022-12-13T05:43:21.900Z,99513.00
2022-12-13T05:46:04.406Z,99507.66
2022-12-13T05:48:53.164Z,99507.66
2022-12-13T05:51:35.381Z,99501.41
2022-12-13T05:54:24.044Z,99494.88
2022-12-13T05:57:06.565Z,99495.41
2022-12-13T05:59:55.114Z,99493.66
2022-12-13T06:02:48.516Z,99492.31
2022-12-13T06:05:38.159Z,99489.63
2022-12-13T06:08:25.041Z,99487.00
2022-12-13T06:11:31.641Z,99477.91
2022-12-13T06:14:22.505Z,99476.19
2022-12-13T06:17:12.116Z,99477.81
2022-12-13T06:19:54.400Z,99482.47
2022-12-13T06:22:43.016Z,99472.94
2022-12-13T06:25:31.542Z,99481.94
2022-12-13T06:28:21.127Z,99462.59
2022-12-13T06:31:03.475Z,99464.06
2022-12-13T06:33:52.110Z,99455.69
2022-12-13T06:36:34.540Z,99449.06
2022-12-13T06:39:23.111Z,99448.59
2022-12-13T06:42:07.146Z,99447.03
2022-12-13T06:44:59.048Z,99438.69
2022-12-13T06:47:48.127Z,99438.84
2022-12-13T06:50:37.023Z,99425.22
2022-12-13T06:53:26.060Z,99427.47
2022-12-13T06:56:11.558Z,99427.69
2022-12-13T06:59:01.668Z,99417.22
2022-12-13T07:01:50.903Z,99417.78
2022-12-13T07:04:34.164Z,99411.78
2022-12-13T07:07:23.131Z,99401.50
2022-12-13T07:10:05.433Z,99392.66
2022-12-13T07:12:56.083Z,99387.13
2022-12-13T07:15:38.479Z,99382.50
2022-12-13T07:18:27.147Z,99374.22
2022-12-13T07:21:21.743Z,99371.22
2022-12-13T07:24:11.046Z,99364.28
2022-12-13T07:27:00.164Z,99360.88
2022-12-13T07:29:42.763Z,99362.69
2022-12-13T07:32:32.044Z,99356.31
2022-12-13T07:35:14.448Z,99342.34
2022-12-13T07:38:03.151Z,99343.78
2022-12-13T07:40:47.491Z,99347.69
2022-12-13T07:43:37.021Z,99343.59
2022-12-13T07:46:23.582Z,99330.94
2022-12-13T07:49:15.140Z,99317.22
2022-12-13T07:51:58.109Z,99313.81
2022-12-13T07:54:48.110Z,99311.75
2022-12-13T07:57:36.354Z,99312.44
2022-12-13T08:00:19.280Z,99310.13
2022-12-13T08:03:12.210Z,99304.47
2022-12-13T08:06:19.178Z,99308.34
2022-12-13T08:09:01.295Z,99299.88
2022-12-13T08:11:50.207Z,99302.53
2022-12-13T08:14:32.609Z,99296.41
2022-12-13T08:17:21.201Z,99303.28
2022-12-13T08:20:09.426Z,99294.91
2022-12-13T08:22:53.136Z,99289.56
2022-12-13T08:25:52.753Z,99281.94
2022-12-13T08:28:36.199Z,99287.22
2022-12-13T08:31:18.367Z,99282.81
2022-12-13T08:34:07.194Z,99274.06
2022-12-13T08:36:49.471Z,99275.28
2022-12-13T08:39:38.189Z,99283.97
2022-12-13T08:42:33.950Z,99273.66
2022-12-13T08:45:23.255Z,99272.94
2022-12-13T08:48:06.392Z,99275.16
2022-12-13T08:50:55.034Z,99273.53
2022-12-13T08:53:40.791Z,99263.97
2022-12-13T08:56:30.084Z,99263.16
2022-12-13T08:59:12.435Z,99263.09
2022-12-13T09:02:05.477Z,99257.56
2022-12-13T09:04:54.103Z,99253.97
2022-12-13T09:07:44.087Z,99250.22
2022-12-13T09:10:38.411Z,99245.84
2022-12-13T09:13:31.095Z,99242.25
2022-12-13T09:16:24.486Z,99247.38
2022-12-13T09:19:25.706Z,99239.22
2022-12-13T09:22:15.072Z,99224.84
2022-12-13T09:24:57.542Z,99233.91
2022-12-13T09:27:52.052Z,99228.13
2022-12-13T09:30:34.376Z,99224.63
2022-12-13T09:33:29.977Z,99213.34
2022-12-13T09:36:26.071Z,99213.00
2022-12-13T09:39:14.970Z,99209.78
2022-12-13T09:42:13.079Z,99209.44
2022-12-13T09:45:03.136Z,99206.16
2022-12-13T09:48:01.952Z,99204.50
2022-12-13T09:51:18.137Z,99205.13
2022-12-13T09:53:58.939Z,99208.78
2022-12-13T09:56:51.630Z,99202.53
2022-12-13T09:59:40.147Z,99201.09
2022-12-13T10:02:36.641Z,99198.31
2022-12-13T10:05:40.150Z,99200.81
2022-12-13T10:08:31.972Z,99205.84
2022-12-13T10:11:21.301Z,99198.69
2022-12-13T10:14:21.689Z,99182.28
2022-12-13T10:17:15.153Z,99197.75
2022-12-13T10:20:03.350Z,99205.34
2022-12-13T10:23:01.569Z,99193.09
2022-12-13T10:26:02.897Z,99185.13
2022-12-13T10:28:52.075Z,99177.69
2022-12-13T10:31:58.897Z,99173.53
2022-12-13T10:34:52.122Z,99186.44
2022-12-13T10:37:41.486Z,99192.06
2022-12-13T10:40:43.102Z,99187.69
2022-12-13T10:43:42.943Z,99186.78
2022-12-13T10:46:32.166Z,99184.28
2022-12-13T10:49:32.395Z,99177.78
2022-12-13T10:52:43.459Z,99188.53
2022-12-13T10:55:45.945Z,99179.97
2022-12-13T10:58:37.622Z,99180.88
2022-12-13T11:01:38.084Z,99182.97
2022-12-13T11:04:40.093Z,99182.84
2022-12-13T11:07:39.494Z,99183.91
2022-12-13T11:10:37.133Z,99184.97
2022-12-13T11:13:40.014Z,99186.59
2022-12-13T11:16:50.015Z,99182.50
2022-12-13T11:19:52.343Z,99179.22
2022-12-13T11:22:45.086Z,99168.47
2022-12-13T11:25:41.147Z,99181.50
2022-12-13T11:28:41.574Z,99179.81
2022-12-13T11:31:34.115Z,99167.69
2022-12-13T11:34:47.342Z,99161.38
2022-12-13T11:38:02.076Z,99167.44
2022-12-13T11:40:55.138Z,99170.81
2022-12-13T11:43:49.392Z,99177.50
2022-12-13T11:46:45.026Z,99167.66
2022-12-13T11:52:32.390Z,99165.00
2022-12-13T11:55:42.170Z,99173.28
2022-12-13T11:59:13.415Z,99162.97
2022-12-13T12:02:16.733Z,99172.84
2022-12-13T12:05:11.152Z,99173.69
2022-12-13T12:08:33.482Z,99177.84
2022-12-13T12:11:57.103Z,99174.06
2022-12-13T12:15:26.864Z,99164.25
2022-12-13T12:18:09.355Z,99163.44
2022-12-13T12:21:18.003Z,99162.34
2022-12-13T12:24:19.083Z,99161.81
2022-12-13T12:27:48.779Z,99164.84
2022-12-13T12:30:36.118Z,99174.13
2022-12-13T12:33:29.422Z,99174.09
2022-12-13T12:36:33.090Z,99179.03
2022-12-13T12:39:47.565Z,99179.03
2022-12-13T12:43:19.109Z,99183.91
2022-12-13T12:46:17.597Z,99185.81
2022-12-13T12:49:30.156Z,99184.44
2022-12-13T12:52:26.362Z,99181.16
2022-12-13T12:55:28.042Z,99195.31
2022-12-13T12:58:19.550Z,99194.69
2022-12-13T13:01:11.040Z,99198.19
2022-12-13T13:04:03.060Z,99193.25
2022-12-13T13:07:03.376Z,99192.69
2022-12-13T13:09:47.052Z,99194.03
2022-12-13T13:12:43.034Z,99200.84
2022-12-13T13:15:40.186Z,99200.84
2022-12-13T13:18:59.310Z,99197.81
2022-12-13T13:22:31.101Z,99199.19
2022-12-13T13:26:16.386Z,99199.69
2022-12-13T13:28:58.110Z,99198.03
2022-12-13T13:32:29.061Z,99202.75
2022-12-13T13:35:33.305Z,99204.41
2022-12-13T13:38:31.075Z,99213.06
2022-12-13T13:41:57.059Z,99211.38
2022-12-13T13:44:57.484Z,99213.00
2022-12-13T13:47:47.001Z,99217.28
2022-12-13T13:50:44.376Z,99214.56
2022-12-13T13:53:58.964Z,99213.41
2022-12-13T13:57:06.000Z,99218.53
2022-12-13T14:00:12.102Z,99214.63
2022-12-13T14:03:59.236Z,99214.63
2022-12-13T14:07:00.932Z,99217.28
2022-12-13T14:10:09.115Z,99219.66
2022-12-13T14:13:18.986Z,99204.31
2022-12-13T14:16:29.243Z,99210.06
2022-12-13T14:20:11.038Z,99205.75
2022-12-13T14:23:08.042Z,99208.69
2022-12-13T14:26:26.556Z,99211.38
2022-12-13T14:29:25.129Z,99217.84
2022-12-13T14:32:07.421Z,99221.38
2022-12-13T14:34:56.005Z,99216.72
2022-12-13T14:37:43.124Z,99213.63
2022-12-13T14:40:35.055Z,99214.50
2022-12-13T14:43:56.934Z,99211.53
2022-12-13T14:46:45.442Z,99211.75
2022-12-13T14:49:29.072Z,99214.69
2022-12-13T14:52:25.919Z,99213.25
2022-12-13T14:55:18.004Z,99210.47
2022-12-13T14:58:05.722Z,99220.03
2022-12-13T15:00:58.978Z,99217.47
2022-12-13T15:03:41.296Z,99221.81
2022-12-13T15:06:32.075Z,99207.56
2022-12-13T15:09:23.417Z,99212.03
2022-12-13T15:12:24.455Z,99213.53
2022-12-13T15:15:10.097Z,99212.69
2022-12-13T15:17:59.484Z,99213.53
2022-12-13T15:20:49.308Z,99212.69
2022-12-13T15:23:49.152Z,99213.28
2022-12-13T15:26:37.919Z,99203.28
2022-12-13T15:29:34.000Z,99200.16
2022-12-13T15:32:20.191Z,99207.56
2022-12-13T15:35:09.130Z,99205.28
2022-12-13T15:37:51.462Z,99208.00
2022-12-13T15:40:40.053Z,99212.88
2022-12-13T15:43:37.966Z,99218.13
2022-12-13T15:46:36.189Z,99208.13
2022-12-13T15:49:37.488Z,99213.66
2022-12-13T15:52:27.068Z,99213.97
2022-12-13T15:55:19.453Z,99216.44
2022-12-13T15:58:10.905Z,99215.88
2022-12-13T16:00:57.496Z,99210.69
2022-12-13T16:03:55.078Z,99207.56
2022-12-13T16:06:39.561Z,99214.09
2022-12-13T16:09:30.028Z,99209.22
2022-12-13T16:12:15.350Z,99215.47
2022-12-13T16:15:33.013Z,99212.50
2022-12-13T16:18:26.527Z,99217.94
2022-12-13T16:21:18.024Z,99209.78
2022-12-13T16:24:00.995Z,99201.88
2022-12-13T16:26:56.008Z,99207.78
2022-12-13T16:29:38.414Z,99202.56
2022-12-13T16:32:27.042Z,99208.72
2022-12-13T16:35:09.562Z,99197.59
2022-12-13T16:37:59.745Z,99207.13
2022-12-13T16:40:57.909Z,99200.06
2022-12-13T16:43:55.056Z,99207.72
2022-12-13T16:47:11.779Z,99205.50
2022-12-13T16:49:52.682Z,99206.97
2022-12-13T16:52:36.033Z,99206.41
2022-12-13T16:55:25.491Z,99199.00
2022-12-13T16:58:10.053Z,99197.84
2022-12-13T17:00:52.310Z,99203.75
2022-12-13T17:03:48.080Z,99192.91
2022-12-13T17:06:37.418Z,99186.47
2022-12-13T17:09:20.052Z,99183.47
2022-12-13T17:12:09.406Z,99178.53
2022-12-13T17:14:51.070Z,99170.81
2022-12-13T17:17:41.464Z,99180.78
2022-12-13T17:20:26.103Z,99176.09
2022-12-13T17:23:17.942Z,99172.66
2022-12-13T17:26:00.001Z,99171.00
2022-12-13T17:28:48.455Z,99165.31
2022-12-13T17:31:35.632Z,99171.31
2022-12-13T17:34:25.380Z,99165.66
2022-12-13T17:37:10.643Z,99154.72
2022-12-13T17:39:59.446Z,99156.03
2022-12-13T17:42:43.086Z,99154.72
2022-12-13T17:45:32.436Z,99159.00
2022-12-13T17:48:14.884Z,99148.66
2022-12-13T17:51:04.344Z,99148.00
2022-12-13T17:53:50.945Z,99141.78
2022-12-13T17:56:41.460Z,99129.75
2022-12-13T17:59:23.998Z,99135.13
2022-12-13T18:02:06.223Z,99141.84
2022-12-13T18:04:54.952Z,99126.00
2022-12-13T18:07:43.912Z,99132.41
2022-12-13T18:10:33.486Z,99123.88
2022-12-13T18:13:22.247Z,99119.28
2022-12-13T18:16:05.544Z,99122.72
2022-12-13T18:18:55.772Z,99122.25
2022-12-13T18:21:38.246Z,99110.50
2022-12-13T18:24:27.101Z,99111.31
2022-12-13T18:27:09.383Z,99113.19
2022-12-13T18:29:58.026Z,99116.56
2022-12-13T18:32:43.881Z,99119.94
2022-12-13T18:35:33.075Z,99114.91
2022-12-13T18:38:14.954Z,99111.88
2022-12-13T18:40:58.515Z,99114.28
2022-12-13T18:44:10.024Z,99109.56
2022-12-13T18:46:59.495Z,99113.00
2022-12-13T18:49:41.985Z,99117.31
2022-12-13T18:52:45.031Z,99114.25
2022-12-13T18:55:27.941Z,99113.59
2022-12-13T18:58:17.091Z,99113.66
2022-12-13T19:00:59.444Z,99110.97
2022-12-13T19:03:48.013Z,99113.78
2022-12-13T19:06:33.350Z,99116.66
2022-12-13T19:09:22.094Z,99105.72
2022-12-13T19:12:04.498Z,99105.13
2022-12-13T19:14:55.310Z,99095.84
2022-12-13T19:17:37.586Z,99093.78
2022-12-13T19:20:26.977Z,99096.31
2022-12-13T19:23:09.369Z,99095.28
2022-12-13T19:25:59.127Z,99093.63
2022-12-13T19:28:45.372Z,99103.28
2022-12-13T19:31:35.055Z,99094.25
2022-12-13T19:34:18.017Z,99099.19
2022-12-13T19:37:07.022Z,99087.56
2022-12-13T19:39:49.211Z,99087.91
2022-12-13T19:42:37.681Z,99083.81
2022-12-13T19:45:25.954Z,99086.13
2022-12-13T19:48:08.043Z,99081.19
2022-12-13T19:50:57.072Z,99087.78
2022-12-13T19:53:40.743Z,99082.16
2022-12-13T19:56:31.035Z,99084.09
2022-12-13T19:59:13.467Z,99090.09
2022-12-13T20:02:01.794Z,99083.88
2022-12-13T20:04:47.019Z,99082.84
2022-12-13T20:07:35.997Z,99074.59
2022-12-13T20:10:25.930Z,99082.63
2022-12-13T20:13:15.078Z,99084.16
2022-12-13T20:16:03.993Z,99087.44
2022-12-13T20:18:54.003Z,99078.28
2022-12-13T20:21:43.925Z,99064.88
2022-12-13T20:24:27.159Z,99075.69
2022-12-13T20:27:15.868Z,99078.53
2022-12-13T20:30:05.348Z,99083.72
2022-12-13T20:32:47.914Z,99085.38
2022-12-13T20:35:49.680Z,99086.88
2022-12-13T20:38:39.017Z,99082.09
2022-12-13T20:41:28.653Z,99091.25
2022-12-13T20:44:20.969Z,99082.34
2022-12-13T20:47:03.379Z,99085.50
2022-12-13T20:49:51.919Z,99096.69
2022-12-13T20:52:35.486Z,99089.25
2022-12-13T20:55:29.013Z,99094.06
2022-12-13T20:58:11.505Z,99092.31
2022-12-13T21:00:59.875Z,99088.94
2022-12-13T21:03:42.319Z,99101.00
2022-12-13T21:06:31.073Z,99101.25
2022-12-13T21:09:13.323Z,99096.91
2022-12-13T21:12:01.843Z,99103.94
2022-12-13T21:14:44.327Z,99091.38
2022-12-13T21:17:32.853Z,99095.38
2022-12-13T21:20:15.393Z,99095.59
2022-12-13T21:23:04.006Z,99092.22
2022-12-13T21:25:46.226Z,99092.66
2022-12-13T21:28:37.031Z,99097.63
2022-12-13T21:31:30.980Z,99099.75
2022-12-13T21:34:20.402Z,99100.06
2022-12-13T21:37:02.959Z,99093.72
2022-12-13T21:39:45.114Z,99107.84
2022-12-13T21:42:33.858Z,99095.03
2022-12-13T21:45:28.958Z,99100.06
2022-12-13T21:48:17.998Z,99098.31
2022-12-13T21:51:00.496Z,99100.66
2022-12-13T21:53:49.061Z,99099.25
2022-12-13T21:56:58.984Z,99098.44
2022-12-13T21:59:41.157Z,99092.91
2022-12-13T22:02:31.932Z,99095.38
2022-12-13T22:05:26.861Z,99091.00
2022-12-13T22:08:09.169Z,99088.22
2022-12-13T22:11:21.084Z,99090.91
2022-12-13T22:14:03.250Z,99101.25
2022-12-13T22:16:52.008Z,99087.50
2022-12-13T22:19:40.868Z,99071.72
2022-12-13T22:22:23.279Z,99081.72
2022-12-13T22:25:11.913Z,99076.75
2022-12-13T22:28:00.887Z,99075.72
2022-12-13T22:30:50.224Z,99079.22
2022-12-13T22:33:33.990Z,99080.84
2022-12-13T22:36:16.463Z,99074.19
2022-12-13T22:39:06.029Z,99067.28
2022-12-13T22:41:49.098Z,99069.41
2022-12-13T22:44:37.952Z,99070.25
2022-12-13T22:47:26.972Z,99068.72
2022-12-13T22:50:09.397Z,99072.09
2022-12-13T22:52:57.947Z,99058.50
2022-12-13T22:55:40.904Z,99062.13
2022-12-13T22:58:30.089Z,99057.84
2022-12-13T23:01:19.347Z,99046.13
2022-12-13T23:04:09.027Z,99052.13
2022-12-13T23:06:51.348Z,99053.06
2022-12-13T23:09:39.993Z,99048.22
2022-12-13T23:12:40.613Z,99059.28
2022-12-13T23:15:29.983Z,99060.91
2022-12-13T23:18:18.983Z,99053.28
2022-12-13T23:21:07.931Z,99052.34
2022-12-13T23:23:50.260Z,99054.13
2022-12-13T23:26:40.888Z,99056.47
2022-12-13T23:29:29.957Z,99048.13
2022-12-13T23:32:19.212Z,99043.53
2022-12-13T23:35:02.958Z,99041.53
2022-12-13T23:37:45.185Z,99039.88
2022-12-13T23:40:36.999Z,99043.16
2022-12-13T23:43:31.862Z,99040.94
2022-12-13T23:46:30.958Z,99042.34
2022-12-13T23:49:19.223Z,99049.38
2022-12-13T23:52:01.901Z,99051.13
2022-12-13T23:54:50.249Z,99043.16
2022-12-13T23:57:31.940Z,99043.38
